Terminal Aerodrome Forecast
Issued by NWS Tulsa, OK

Current Version | Previous Version | Text Only | Print | Product List | Glossary On
Versions: 1 2 3 4 5 6 7 8 9 10 11 12 13 14 15 16 17 18 19 20 21 22 23 24 25 26
000
FTPQ31 PGUM 270528
TAFGUM
TAF

TAF
PTSA 270528Z 2706/2806 VRB07KT P6SM VCSH SCT009 BKN030 BKN130
      TEMPO 2706/2710 VRB12G18KT 3SM +SHRA SCT010 OVC020
     FM272100 08011KT P6SM SCT018 SCT030 BKN120=

USA.gov is the U.S. government's official web portal to all federal, state and local government web resources and services.